sensor_id;sensor_type;location;lat;lon;timestamp;P1;durP1;ratioP1;P2;durP2;ratioP2
53269;SDS011;39159;45.634;9.420;2022-10-13T00:00:15;48.42;;;27.65;;
53269;SDS011;39159;45.634;9.420;2022-10-13T00:02:40;46.10;;;29.02;;
53269;SDS011;39159;45.634;9.420;2022-10-13T00:05:06;47.35;;;29.20;;
53269;SDS011;39159;45.634;9.420;2022-10-13T00:07:32;45.38;;;28.02;;
53269;SDS011;39159;45.634;9.420;2022-10-13T00:09:58;49.13;;;27.73;;
53269;SDS011;39159;45.634;9.420;2022-10-13T00:12:23;42.45;;;26.45;;
53269;SDS011;39159;45.634;9.420;2022-10-13T00:14:48;46.58;;;28.02;;
53269;SDS011;39159;45.634;9.420;2022-10-13T00:17:14;45.15;;;25.80;;
53269;SDS011;39159;45.634;9.420;2022-10-13T00:19:39;46.42;;;27.27;;
53269;SDS011;39159;45.634;9.420;2022-10-13T00:22:05;44.00;;;27.88;;
53269;SDS011;39159;45.634;9.420;2022-10-13T00:24:30;46.95;;;27.70;;
53269;SDS011;39159;45.634;9.420;2022-10-13T00:26:56;46.22;;;28.48;;
53269;SDS011;39159;45.634;9.420;2022-10-13T00:29:21;44.60;;;27.23;;
53269;SDS011;39159;45.634;9.420;2022-10-13T00:31:46;49.65;;;28.90;;
53269;SDS011;39159;45.634;9.420;2022-10-13T00:34:12;45.72;;;28.00;;
53269;SDS011;39159;45.634;9.420;2022-10-13T00:36:37;41.33;;;26.38;;
53269;SDS011;39159;45.634;9.420;2022-10-13T00:39:03;46.58;;;27.35;;
53269;SDS011;39159;45.634;9.420;2022-10-13T00:41:28;43.05;;;27.58;;
53269;SDS011;39159;45.634;9.420;2022-10-13T00:43:58;47.13;;;27.67;;
53269;SDS011;39159;45.634;9.420;2022-10-13T00:46:32;44.10;;;27.13;;
53269;SDS011;39159;45.634;9.420;2022-10-13T00:49:03;46.70;;;28.35;;
53269;SDS011;39159;45.634;9.420;2022-10-13T00:51:34;47.38;;;29.20;;
53269;SDS011;39159;45.634;9.420;2022-10-13T00:54:05;47.67;;;28.70;;
53269;SDS011;39159;45.634;9.420;2022-10-13T00:56:33;47.30;;;28.15;;
53269;SDS011;39159;45.634;9.420;2022-10-13T00:59:01;43.30;;;26.30;;
53269;SDS011;39159;45.634;9.420;2022-10-13T01:01:30;43.17;;;26.80;;
53269;SDS011;39159;45.634;9.420;2022-10-13T01:03:55;43.33;;;26.58;;
53269;SDS011;39159;45.634;9.420;2022-10-13T01:06:21;49.72;;;27.42;;
53269;SDS011;39159;45.634;9.420;2022-10-13T01:08:47;40.55;;;26.48;;
53269;SDS011;39159;45.634;9.420;2022-10-13T01:11:34;44.28;;;27.10;;
53269;SDS011;39159;45.634;9.420;2022-10-13T01:14:27;43.57;;;25.47;;
53269;SDS011;39159;45.634;9.420;2022-10-13T01:31:12;48.72;;;27.92;;
53269;SDS011;39159;45.634;9.420;2022-10-13T01:33:43;46.53;;;28.42;;
53269;SDS011;39159;45.634;9.420;2022-10-13T01:39:13;56.22;;;29.52;;
53269;SDS011;39159;45.634;9.420;2022-10-13T01:41:53;49.10;;;27.88;;
53269;SDS011;39159;45.634;9.420;2022-10-13T01:44:28;59.70;;;28.60;;
53269;SDS011;39159;45.634;9.420;2022-10-13T01:46:58;51.03;;;29.30;;
53269;SDS011;39159;45.634;9.420;2022-10-13T01:49:27;56.00;;;30.83;;
53269;SDS011;39159;45.634;9.420;2022-10-13T01:51:59;63.22;;;30.13;;
53269;SDS011;39159;45.634;9.420;2022-10-13T01:54:28;59.90;;;29.98;;
53269;SDS011;39159;45.634;9.420;2022-10-13T01:56:55;53.75;;;30.20;;
53269;SDS011;39159;45.634;9.420;2022-10-13T01:59:20;57.65;;;31.30;;
53269;SDS011;39159;45.634;9.420;2022-10-13T02:02:10;60.88;;;31.17;;
53269;SDS011;39159;45.634;9.420;2022-10-13T02:10:04;55.17;;;30.50;;
53269;SDS011;39159;45.634;9.420;2022-10-13T02:12:48;59.55;;;33.30;;
53269;SDS011;39159;45.634;9.420;2022-10-13T02:15:28;55.60;;;30.38;;
53269;SDS011;39159;45.634;9.420;2022-10-13T02:17:57;57.00;;;31.08;;
53269;SDS011;39159;45.634;9.420;2022-10-13T02:20:24;58.85;;;31.90;;
53269;SDS011;39159;45.634;9.420;2022-10-13T02:22:50;68.88;;;32.85;;
53269;SDS011;39159;45.634;9.420;2022-10-13T02:25:23;61.05;;;31.88;;
53269;SDS011;39159;45.634;9.420;2022-10-13T02:27:50;55.50;;;32.90;;
53269;SDS011;39159;45.634;9.420;2022-10-13T02:30:21;59.53;;;31.88;;
53269;SDS011;39159;45.634;9.420;2022-10-13T02:32:48;54.58;;;31.65;;
53269;SDS011;39159;45.634;9.420;2022-10-13T02:35:13;60.28;;;31.98;;
53269;SDS011;39159;45.634;9.420;2022-10-13T02:37:38;52.90;;;30.38;;
53269;SDS011;39159;45.634;9.420;2022-10-13T02:40:04;55.90;;;31.77;;
53269;SDS011;39159;45.634;9.420;2022-10-13T02:42:30;55.35;;;29.88;;
53269;SDS011;39159;45.634;9.420;2022-10-13T02:44:55;55.05;;;31.60;;
53269;SDS011;39159;45.634;9.420;2022-10-13T02:47:21;48.22;;;30.27;;
53269;SDS011;39159;45.634;9.420;2022-10-13T02:49:46;47.83;;;28.33;;
53269;SDS011;39159;45.634;9.420;2022-10-13T02:52:12;50.25;;;29.10;;
53269;SDS011;39159;45.634;9.420;2022-10-13T02:54:37;47.97;;;28.30;;
53269;SDS011;39159;45.634;9.420;2022-10-13T02:57:03;55.58;;;30.20;;
53269;SDS011;39159;45.634;9.420;2022-10-13T02:59:28;51.08;;;29.05;;
53269;SDS011;39159;45.634;9.420;2022-10-13T03:01:54;50.00;;;29.02;;
53269;SDS011;39159;45.634;9.420;2022-10-13T03:04:20;48.63;;;29.70;;
53269;SDS011;39159;45.634;9.420;2022-10-13T03:06:46;48.60;;;28.60;;
53269;SDS011;39159;45.634;9.420;2022-10-13T03:09:11;48.55;;;28.10;;
53269;SDS011;39159;45.634;9.420;2022-10-13T03:11:37;55.40;;;29.60;;
53269;SDS011;39159;45.634;9.420;2022-10-13T03:14:02;50.22;;;29.20;;
53269;SDS011;39159;45.634;9.420;2022-10-13T03:16:28;52.80;;;28.42;;
53269;SDS011;39159;45.634;9.420;2022-10-13T03:18:53;51.35;;;29.80;;
53269;SDS011;39159;45.634;9.420;2022-10-13T03:21:20;49.22;;;29.98;;
53269;SDS011;39159;45.634;9.420;2022-10-13T03:23:45;59.38;;;31.83;;
53269;SDS011;39159;45.634;9.420;2022-10-13T03:26:11;55.00;;;29.58;;
53269;SDS011;39159;45.634;9.420;2022-10-13T03:28:36;52.15;;;30.25;;
53269;SDS011;39159;45.634;9.420;2022-10-13T03:31:03;51.30;;;30.33;;
53269;SDS011;39159;45.634;9.420;2022-10-13T03:33:30;50.03;;;29.83;;
53269;SDS011;39159;45.634;9.420;2022-10-13T03:36:03;52.92;;;30.08;;
53269;SDS011;39159;45.634;9.420;2022-10-13T03:38:30;49.50;;;28.20;;
53269;SDS011;39159;45.634;9.420;2022-10-13T03:40:59;50.60;;;29.30;;
53269;SDS011;39159;45.634;9.420;2022-10-13T03:43:28;48.50;;;28.67;;
53269;SDS011;39159;45.634;9.420;2022-10-13T03:45:57;48.70;;;29.58;;
53269;SDS011;39159;45.634;9.420;2022-10-13T03:48:23;54.40;;;30.73;;
53269;SDS011;39159;45.634;9.420;2022-10-13T03:50:49;52.30;;;29.35;;
53269;SDS011;39159;45.634;9.420;2022-10-13T03:53:15;51.08;;;29.30;;
53269;SDS011;39159;45.634;9.420;2022-10-13T03:55:40;52.13;;;27.90;;
53269;SDS011;39159;45.634;9.420;2022-10-13T03:58:06;41.70;;;25.55;;
53269;SDS011;39159;45.634;9.420;2022-10-13T04:00:34;43.28;;;25.88;;
53269;SDS011;39159;45.634;9.420;2022-10-13T04:02:59;49.17;;;27.90;;
53269;SDS011;39159;45.634;9.420;2022-10-13T04:05:25;48.65;;;27.88;;
53269;SDS011;39159;45.634;9.420;2022-10-13T04:07:50;47.35;;;28.92;;
53269;SDS011;39159;45.634;9.420;2022-10-13T04:10:16;55.58;;;28.38;;
53269;SDS011;39159;45.634;9.420;2022-10-13T04:12:41;49.20;;;28.25;;
53269;SDS011;39159;45.634;9.420;2022-10-13T04:15:07;47.20;;;27.25;;
53269;SDS011;39159;45.634;9.420;2022-10-13T04:17:33;57.05;;;29.40;;
53269;SDS011;39159;45.634;9.420;2022-10-13T04:19:58;50.75;;;27.20;;
53269;SDS011;39159;45.634;9.420;2022-10-13T04:22:24;51.22;;;27.65;;
53269;SDS011;39159;45.634;9.420;2022-10-13T04:24:49;49.35;;;28.02;;
53269;SDS011;39159;45.634;9.420;2022-10-13T04:27:14;49.13;;;27.15;;
53269;SDS011;39159;45.634;9.420;2022-10-13T04:29:42;50.28;;;27.05;;
53269;SDS011;39159;45.634;9.420;2022-10-13T04:32:08;46.45;;;27.52;;
53269;SDS011;39159;45.634;9.420;2022-10-13T04:34:33;46.28;;;27.08;;
53269;SDS011;39159;45.634;9.420;2022-10-13T04:36:59;51.58;;;27.42;;
53269;SDS011;39159;45.634;9.420;2022-10-13T04:39:24;47.92;;;26.88;;
53269;SDS011;39159;45.634;9.420;2022-10-13T04:41:50;47.92;;;26.92;;
53269;SDS011;39159;45.634;9.420;2022-10-13T04:44:15;52.00;;;28.13;;
53269;SDS011;39159;45.634;9.420;2022-10-13T04:46:40;48.38;;;29.15;;
53269;SDS011;39159;45.634;9.420;2022-10-13T04:49:07;49.67;;;28.38;;
53269;SDS011;39159;45.634;9.420;2022-10-13T04:51:32;53.42;;;28.92;;
53269;SDS011;39159;45.634;9.420;2022-10-13T04:53:58;48.75;;;27.13;;
53269;SDS011;39159;45.634;9.420;2022-10-13T04:56:25;55.58;;;29.52;;
53269;SDS011;39159;45.634;9.420;2022-10-13T04:58:50;47.20;;;27.75;;
53269;SDS011;39159;45.634;9.420;2022-10-13T05:01:17;44.75;;;27.40;;
53269;SDS011;39159;45.634;9.420;2022-10-13T05:03:45;45.15;;;27.38;;
53269;SDS011;39159;45.634;9.420;2022-10-13T05:06:18;45.28;;;26.98;;
53269;SDS011;39159;45.634;9.420;2022-10-13T05:08:45;44.30;;;26.15;;
53269;SDS011;39159;45.634;9.420;2022-10-13T05:11:11;51.20;;;25.40;;
53269;SDS011;39159;45.634;9.420;2022-10-13T05:13:36;46.33;;;27.05;;
53269;SDS011;39159;45.634;9.420;2022-10-13T05:16:09;42.42;;;25.65;;
53269;SDS011;39159;45.634;9.420;2022-10-13T05:18:36;47.80;;;26.77;;
53269;SDS011;39159;45.634;9.420;2022-10-13T05:21:06;46.10;;;27.73;;
53269;SDS011;39159;45.634;9.420;2022-10-13T05:23:35;45.78;;;26.92;;
53269;SDS011;39159;45.634;9.420;2022-10-13T05:26:02;46.00;;;25.73;;
53269;SDS011;39159;45.634;9.420;2022-10-13T05:28:28;41.42;;;25.55;;
53269;SDS011;39159;45.634;9.420;2022-10-13T05:30:54;44.40;;;25.27;;
53269;SDS011;39159;45.634;9.420;2022-10-13T05:33:20;47.70;;;26.00;;
53269;SDS011;39159;45.634;9.420;2022-10-13T05:35:45;52.30;;;27.65;;
53269;SDS011;39159;45.634;9.420;2022-10-13T05:38:10;49.22;;;26.15;;
53269;SDS011;39159;45.634;9.420;2022-10-13T05:40:36;44.58;;;26.75;;
53269;SDS011;39159;45.634;9.420;2022-10-13T05:43:02;47.65;;;25.42;;
53269;SDS011;39159;45.634;9.420;2022-10-13T05:45:28;47.58;;;28.00;;
53269;SDS011;39159;45.634;9.420;2022-10-13T05:47:56;47.40;;;26.70;;
53269;SDS011;39159;45.634;9.420;2022-10-13T05:50:22;45.30;;;26.52;;
53269;SDS011;39159;45.634;9.420;2022-10-13T05:52:47;49.10;;;26.83;;
53269;SDS011;39159;45.634;9.420;2022-10-13T05:55:14;50.75;;;27.17;;
53269;SDS011;39159;45.634;9.420;2022-10-13T05:57:43;47.80;;;26.50;;
53269;SDS011;39159;45.634;9.420;2022-10-13T06:05:38;45.30;;;25.08;;
53269;SDS011;39159;45.634;9.420;2022-10-13T06:08:05;38.03;;;25.05;;
53269;SDS011;39159;45.634;9.420;2022-10-13T06:10:31;49.67;;;25.92;;
53269;SDS011;39159;45.634;9.420;2022-10-13T06:12:57;46.70;;;25.45;;
53269;SDS011;39159;45.634;9.420;2022-10-13T06:15:22;51.20;;;25.92;;
53269;SDS011;39159;45.634;9.420;2022-10-13T06:17:48;44.95;;;25.40;;
53269;SDS011;39159;45.634;9.420;2022-10-13T06:20:13;40.42;;;25.42;;
53269;SDS011;39159;45.634;9.420;2022-10-13T06:22:39;38.83;;;24.40;;
53269;SDS011;39159;45.634;9.420;2022-10-13T06:25:05;41.22;;;25.13;;
53269;SDS011;39159;45.634;9.420;2022-10-13T06:27:31;47.97;;;26.60;;
53269;SDS011;39159;45.634;9.420;2022-10-13T06:29:57;47.53;;;25.73;;
53269;SDS011;39159;45.634;9.420;2022-10-13T06:32:22;38.47;;;23.92;;
53269;SDS011;39159;45.634;9.420;2022-10-13T06:34:48;42.40;;;24.08;;
53269;SDS011;39159;45.634;9.420;2022-10-13T06:37:13;40.85;;;23.85;;
53269;SDS011;39159;45.634;9.420;2022-10-13T06:39:39;39.10;;;23.10;;
53269;SDS011;39159;45.634;9.420;2022-10-13T06:42:04;40.70;;;24.15;;
53269;SDS011;39159;45.634;9.420;2022-10-13T06:44:30;41.63;;;24.52;;
53269;SDS011;39159;45.634;9.420;2022-10-13T06:46:56;38.95;;;23.10;;
53269;SDS011;39159;45.634;9.420;2022-10-13T06:49:22;48.05;;;24.80;;
53269;SDS011;39159;45.634;9.420;2022-10-13T06:51:48;45.83;;;24.15;;
53269;SDS011;39159;45.634;9.420;2022-10-13T06:54:14;39.45;;;23.10;;
53269;SDS011;39159;45.634;9.420;2022-10-13T06:56:39;37.13;;;24.15;;
53269;SDS011;39159;45.634;9.420;2022-10-13T06:59:05;39.72;;;23.80;;
53269;SDS011;39159;45.634;9.420;2022-10-13T07:01:31;37.13;;;23.75;;
53269;SDS011;39159;45.634;9.420;2022-10-13T07:03:56;40.85;;;22.85;;
53269;SDS011;39159;45.634;9.420;2022-10-13T07:06:22;38.97;;;22.77;;
53269;SDS011;39159;45.634;9.420;2022-10-13T07:08:47;40.45;;;22.00;;
53269;SDS011;39159;45.634;9.420;2022-10-13T07:11:13;39.65;;;22.60;;
53269;SDS011;39159;45.634;9.420;2022-10-13T07:13:39;38.38;;;22.90;;
53269;SDS011;39159;45.634;9.420;2022-10-13T07:16:06;46.72;;;24.40;;
53269;SDS011;39159;45.634;9.420;2022-10-13T07:18:32;50.60;;;26.65;;
53269;SDS011;39159;45.634;9.420;2022-10-13T07:20:59;44.80;;;24.98;;
53269;SDS011;39159;45.634;9.420;2022-10-13T07:23:24;37.05;;;24.25;;
53269;SDS011;39159;45.634;9.420;2022-10-13T07:25:51;41.08;;;23.67;;
53269;SDS011;39159;45.634;9.420;2022-10-13T07:28:17;51.95;;;25.73;;
53269;SDS011;39159;45.634;9.420;2022-10-13T07:30:42;48.38;;;25.30;;
53269;SDS011;39159;45.634;9.420;2022-10-13T07:33:08;40.65;;;23.13;;
53269;SDS011;39159;45.634;9.420;2022-10-13T07:35:38;45.55;;;23.00;;
53269;SDS011;39159;45.634;9.420;2022-10-13T07:38:03;39.78;;;23.33;;
53269;SDS011;39159;45.634;9.420;2022-10-13T07:40:30;42.53;;;24.02;;
53269;SDS011;39159;45.634;9.420;2022-10-13T07:42:55;39.60;;;23.50;;
53269;SDS011;39159;45.634;9.420;2022-10-13T07:45:21;38.20;;;23.33;;
53269;SDS011;39159;45.634;9.420;2022-10-13T07:47:47;34.53;;;22.75;;
53269;SDS011;39159;45.634;9.420;2022-10-13T07:50:12;39.38;;;22.20;;
53269;SDS011;39159;45.634;9.420;2022-10-13T07:52:38;36.65;;;22.33;;
53269;SDS011;39159;45.634;9.420;2022-10-13T07:55:04;37.92;;;22.50;;
53269;SDS011;39159;45.634;9.420;2022-10-13T07:57:30;36.30;;;21.13;;
53269;SDS011;39159;45.634;9.420;2022-10-13T07:59:56;29.40;;;19.40;;
53269;SDS011;39159;45.634;9.420;2022-10-13T08:02:21;29.13;;;19.05;;
53269;SDS011;39159;45.634;9.420;2022-10-13T08:04:47;36.83;;;22.27;;
53269;SDS011;39159;45.634;9.420;2022-10-13T08:07:12;33.97;;;20.02;;
53269;SDS011;39159;45.634;9.420;2022-10-13T08:09:38;47.17;;;21.60;;
53269;SDS011;39159;45.634;9.420;2022-10-13T08:12:03;44.33;;;22.13;;
53269;SDS011;39159;45.634;9.420;2022-10-13T08:14:29;37.33;;;21.40;;
53269;SDS011;39159;45.634;9.420;2022-10-13T08:16:55;33.38;;;20.02;;
53269;SDS011;39159;45.634;9.420;2022-10-13T08:19:22;29.92;;;19.52;;
53269;SDS011;39159;45.634;9.420;2022-10-13T08:21:50;29.55;;;19.15;;
53269;SDS011;39159;45.634;9.420;2022-10-13T08:24:16;28.75;;;19.35;;
53269;SDS011;39159;45.634;9.420;2022-10-13T08:26:42;30.23;;;18.85;;
53269;SDS011;39159;45.634;9.420;2022-10-13T08:29:09;24.90;;;17.20;;
53269;SDS011;39159;45.634;9.420;2022-10-13T08:31:35;28.52;;;18.40;;
53269;SDS011;39159;45.634;9.420;2022-10-13T08:34:00;31.42;;;19.13;;
53269;SDS011;39159;45.634;9.420;2022-10-13T08:36:26;28.75;;;17.08;;
53269;SDS011;39159;45.634;9.420;2022-10-13T08:38:51;23.38;;;15.55;;
53269;SDS011;39159;45.634;9.420;2022-10-13T08:41:24;30.27;;;16.13;;
53269;SDS011;39159;45.634;9.420;2022-10-13T08:43:56;24.70;;;14.75;;
53269;SDS011;39159;45.634;9.420;2022-10-13T08:46:28;20.95;;;12.45;;
53269;SDS011;39159;45.634;9.420;2022-10-13T08:49:01;23.35;;;12.90;;
53269;SDS011;39159;45.634;9.420;2022-10-13T08:51:26;15.20;;;11.77;;
53269;SDS011;39159;45.634;9.420;2022-10-13T08:53:52;21.50;;;12.73;;
53269;SDS011;39159;45.634;9.420;2022-10-13T08:56:26;19.05;;;11.77;;
53269;SDS011;39159;45.634;9.420;2022-10-13T08:58:55;21.35;;;11.43;;
53269;SDS011;39159;45.634;9.420;2022-10-13T09:01:29;22.15;;;12.10;;
53269;SDS011;39159;45.634;9.420;2022-10-13T09:06:52;17.67;;;11.50;;
53269;SDS011;39159;45.634;9.420;2022-10-13T09:09:21;22.08;;;13.07;;
53269;SDS011;39159;45.634;9.420;2022-10-13T09:11:47;21.80;;;12.77;;
53269;SDS011;39159;45.634;9.420;2022-10-13T09:14:24;28.98;;;13.57;;
53269;SDS011;39159;45.634;9.420;2022-10-13T09:16:52;25.38;;;13.02;;
53269;SDS011;39159;45.634;9.420;2022-10-13T09:21:54;24.30;;;13.38;;
53269;SDS011;39159;45.634;9.420;2022-10-13T09:24:22;19.88;;;12.80;;
53269;SDS011;39159;45.634;9.420;2022-10-13T09:26:50;27.52;;;15.23;;
53269;SDS011;39159;45.634;9.420;2022-10-13T09:29:28;29.45;;;14.93;;
53269;SDS011;39159;45.634;9.420;2022-10-13T09:32:06;25.30;;;15.02;;
53269;SDS011;39159;45.634;9.420;2022-10-13T09:34:37;24.77;;;14.10;;
53269;SDS011;39159;45.634;9.420;2022-10-13T09:37:04;28.23;;;14.40;;
53269;SDS011;39159;45.634;9.420;2022-10-13T09:39:39;28.48;;;14.32;;
53269;SDS011;39159;45.634;9.420;2022-10-13T09:42:19;25.20;;;12.65;;
53269;SDS011;39159;45.634;9.420;2022-10-13T09:44:47;20.52;;;13.55;;
53269;SDS011;39159;45.634;9.420;2022-10-13T09:47:36;22.20;;;14.02;;
53269;SDS011;39159;45.634;9.420;2022-10-13T09:50:04;23.75;;;12.73;;
53269;SDS011;39159;45.634;9.420;2022-10-13T09:52:40;20.17;;;11.88;;
53269;SDS011;39159;45.634;9.420;2022-10-13T09:55:24;24.60;;;14.23;;
53269;SDS011;39159;45.634;9.420;2022-10-13T09:58:00;25.10;;;13.48;;
53269;SDS011;39159;45.634;9.420;2022-10-13T10:00:30;17.48;;;11.30;;
53269;SDS011;39159;45.634;9.420;2022-10-13T10:02:57;23.10;;;11.70;;
53269;SDS011;39159;45.634;9.420;2022-10-13T10:05:31;25.95;;;13.30;;
53269;SDS011;39159;45.634;9.420;2022-10-13T10:10:55;23.25;;;14.10;;
53269;SDS011;39159;45.634;9.420;2022-10-13T10:13:25;22.08;;;11.93;;
53269;SDS011;39159;45.634;9.420;2022-10-13T10:15:52;31.42;;;13.15;;
53269;SDS011;39159;45.634;9.420;2022-10-13T10:24:33;22.08;;;13.60;;
53269;SDS011;39159;45.634;9.420;2022-10-13T10:27:26;31.73;;;15.93;;
53269;SDS011;39159;45.634;9.420;2022-10-13T10:30:05;33.78;;;17.13;;
53269;SDS011;39159;45.634;9.420;2022-10-13T10:40:39;32.15;;;18.20;;
53269;SDS011;39159;45.634;9.420;2022-10-13T10:46:25;32.42;;;18.90;;
53269;SDS011;39159;45.634;9.420;2022-10-13T10:48:56;30.33;;;17.85;;
53269;SDS011;39159;45.634;9.420;2022-10-13T10:51:26;35.95;;;20.65;;
53269;SDS011;39159;45.634;9.420;2022-10-13T10:57:05;28.77;;;17.52;;
53269;SDS011;39159;45.634;9.420;2022-10-13T11:08:29;26.60;;;17.67;;
53269;SDS011;39159;45.634;9.420;2022-10-13T11:16:40;34.60;;;21.00;;
53269;SDS011;39159;45.634;9.420;2022-10-13T11:19:29;36.53;;;21.58;;
53269;SDS011;39159;45.634;9.420;2022-10-13T11:27:18;39.50;;;23.63;;
53269;SDS011;39159;45.634;9.420;2022-10-13T11:29:58;34.13;;;20.75;;
53269;SDS011;39159;45.634;9.420;2022-10-13T11:34:56;33.10;;;18.58;;
53269;SDS011;39159;45.634;9.420;2022-10-13T11:51:20;32.85;;;20.83;;
53269;SDS011;39159;45.634;9.420;2022-10-13T11:56:50;38.90;;;23.30;;
53269;SDS011;39159;45.634;9.420;2022-10-13T12:02:30;38.83;;;25.70;;
53269;SDS011;39159;45.634;9.420;2022-10-13T12:07:07;42.22;;;21.77;;
53269;SDS011;39159;45.634;9.420;2022-10-13T12:09:46;45.03;;;26.20;;
53269;SDS011;39159;45.634;9.420;2022-10-13T12:12:17;42.15;;;25.48;;
53269;SDS011;39159;45.634;9.420;2022-10-13T12:14:45;50.85;;;28.73;;
53269;SDS011;39159;45.634;9.420;2022-10-13T12:19:48;52.25;;;31.75;;
53269;SDS011;39159;45.634;9.420;2022-10-13T12:22:14;48.10;;;29.60;;
53269;SDS011;39159;45.634;9.420;2022-10-13T12:24:39;50.67;;;30.60;;
53269;SDS011;39159;45.634;9.420;2022-10-13T12:27:14;49.53;;;30.10;;
53269;SDS011;39159;45.634;9.420;2022-10-13T12:29:44;50.83;;;29.40;;
53269;SDS011;39159;45.634;9.420;2022-10-13T12:32:20;45.30;;;27.98;;
53269;SDS011;39159;45.634;9.420;2022-10-13T12:34:47;45.40;;;25.27;;
53269;SDS011;39159;45.634;9.420;2022-10-13T12:37:27;40.00;;;24.55;;
53269;SDS011;39159;45.634;9.420;2022-10-13T12:39:57;48.97;;;28.30;;
53269;SDS011;39159;45.634;9.420;2022-10-13T12:42:26;46.28;;;28.38;;
53269;SDS011;39159;45.634;9.420;2022-10-13T12:44:54;47.47;;;29.02;;
53269;SDS011;39159;45.634;9.420;2022-10-13T12:47:35;52.53;;;29.67;;
53269;SDS011;39159;45.634;9.420;2022-10-13T12:52:54;46.78;;;26.52;;
53269;SDS011;39159;45.634;9.420;2022-10-13T12:55:27;48.70;;;26.73;;
53269;SDS011;39159;45.634;9.420;2022-10-13T12:57:53;47.03;;;29.67;;
53269;SDS011;39159;45.634;9.420;2022-10-13T13:00:23;42.45;;;26.33;;
53269;SDS011;39159;45.634;9.420;2022-10-13T13:03:00;44.63;;;27.70;;
53269;SDS011;39159;45.634;9.420;2022-10-13T13:05:29;42.22;;;26.65;;
53269;SDS011;39159;45.634;9.420;2022-10-13T13:07:58;50.33;;;28.25;;
53269;SDS011;39159;45.634;9.420;2022-10-13T13:10:24;42.55;;;26.15;;
53269;SDS011;39159;45.634;9.420;2022-10-13T13:12:51;44.53;;;27.67;;
53269;SDS011;39159;45.634;9.420;2022-10-13T13:17:54;38.70;;;25.27;;
53269;SDS011;39159;45.634;9.420;2022-10-13T13:20:39;49.40;;;28.25;;
53269;SDS011;39159;45.634;9.420;2022-10-13T13:23:05;42.38;;;25.10;;
53269;SDS011;39159;45.634;9.420;2022-10-13T13:25:30;49.65;;;26.48;;
53269;SDS011;39159;45.634;9.420;2022-10-13T13:27:55;43.42;;;26.08;;
53269;SDS011;39159;45.634;9.420;2022-10-13T13:30:22;40.80;;;26.80;;
53269;SDS011;39159;45.634;9.420;2022-10-13T13:32:48;43.75;;;24.00;;
53269;SDS011;39159;45.634;9.420;2022-10-13T13:35:14;47.78;;;26.25;;
53269;SDS011;39159;45.634;9.420;2022-10-13T13:37:48;49.10;;;29.38;;
53269;SDS011;39159;45.634;9.420;2022-10-13T13:40:17;45.17;;;25.70;;
53269;SDS011;39159;45.634;9.420;2022-10-13T13:42:44;43.42;;;28.45;;
53269;SDS011;39159;45.634;9.420;2022-10-13T13:45:17;41.25;;;26.52;;
53269;SDS011;39159;45.634;9.420;2022-10-13T13:47:44;41.40;;;27.23;;
53269;SDS011;39159;45.634;9.420;2022-10-13T13:50:14;41.97;;;26.13;;
53269;SDS011;39159;45.634;9.420;2022-10-13T13:52:42;45.75;;;27.02;;
53269;SDS011;39159;45.634;9.420;2022-10-13T13:55:08;43.53;;;27.67;;
53269;SDS011;39159;45.634;9.420;2022-10-13T13:57:33;49.40;;;31.55;;
53269;SDS011;39159;45.634;9.420;2022-10-13T13:59:59;45.80;;;27.85;;
53269;SDS011;39159;45.634;9.420;2022-10-13T14:02:24;45.95;;;27.55;;
53269;SDS011;39159;45.634;9.420;2022-10-13T14:04:50;57.88;;;32.00;;
53269;SDS011;39159;45.634;9.420;2022-10-13T14:07:17;40.63;;;26.23;;
53269;SDS011;39159;45.634;9.420;2022-10-13T14:09:43;54.25;;;32.83;;
53269;SDS011;39159;45.634;9.420;2022-10-13T14:12:09;55.10;;;32.78;;
53269;SDS011;39159;45.634;9.420;2022-10-13T14:14:34;59.03;;;33.78;;
53269;SDS011;39159;45.634;9.420;2022-10-13T14:17:00;52.13;;;33.53;;
53269;SDS011;39159;45.634;9.420;2022-10-13T14:19:27;50.78;;;30.40;;
53269;SDS011;39159;45.634;9.420;2022-10-13T14:21:53;48.45;;;28.08;;
53269;SDS011;39159;45.634;9.420;2022-10-13T14:24:19;39.60;;;23.95;;
53269;SDS011;39159;45.634;9.420;2022-10-13T14:26:44;45.17;;;29.25;;
53269;SDS011;39159;45.634;9.420;2022-10-13T14:29:10;47.00;;;29.77;;
53269;SDS011;39159;45.634;9.420;2022-10-13T14:31:35;56.10;;;29.17;;
53269;SDS011;39159;45.634;9.420;2022-10-13T14:34:01;56.90;;;33.25;;
53269;SDS011;39159;45.634;9.420;2022-10-13T14:36:26;48.60;;;29.65;;
53269;SDS011;39159;45.634;9.420;2022-10-13T14:38:52;43.00;;;26.52;;
53269;SDS011;39159;45.634;9.420;2022-10-13T14:41:19;42.65;;;26.35;;
53269;SDS011;39159;45.634;9.420;2022-10-13T14:43:45;45.17;;;25.52;;
53269;SDS011;39159;45.634;9.420;2022-10-13T14:46:11;55.63;;;30.13;;
53269;SDS011;39159;45.634;9.420;2022-10-13T14:48:36;35.03;;;23.05;;
53269;SDS011;39159;45.634;9.420;2022-10-13T14:51:03;37.75;;;23.38;;
53269;SDS011;39159;45.634;9.420;2022-10-13T14:53:33;50.35;;;26.05;;
53269;SDS011;39159;45.634;9.420;2022-10-13T14:56:00;38.33;;;22.85;;
53269;SDS011;39159;45.634;9.420;2022-10-13T14:58:26;44.42;;;23.35;;
53269;SDS011;39159;45.634;9.420;2022-10-13T15:00:52;42.15;;;23.77;;
53269;SDS011;39159;45.634;9.420;2022-10-13T15:03:19;56.65;;;28.73;;
53269;SDS011;39159;45.634;9.420;2022-10-13T15:05:45;52.13;;;31.25;;
53269;SDS011;39159;45.634;9.420;2022-10-13T15:08:10;52.00;;;28.95;;
53269;SDS011;39159;45.634;9.420;2022-10-13T15:10:36;42.33;;;24.77;;
53269;SDS011;39159;45.634;9.420;2022-10-13T15:13:02;44.53;;;25.38;;
53269;SDS011;39159;45.634;9.420;2022-10-13T15:15:28;35.10;;;22.00;;
53269;SDS011;39159;45.634;9.420;2022-10-13T15:17:53;36.33;;;23.05;;
53269;SDS011;39159;45.634;9.420;2022-10-13T15:20:19;49.80;;;25.20;;
53269;SDS011;39159;45.634;9.420;2022-10-13T15:22:45;35.47;;;21.70;;
53269;SDS011;39159;45.634;9.420;2022-10-13T15:25:11;34.33;;;22.55;;
53269;SDS011;39159;45.634;9.420;2022-10-13T15:27:37;33.72;;;22.40;;
53269;SDS011;39159;45.634;9.420;2022-10-13T15:30:04;40.58;;;24.33;;
53269;SDS011;39159;45.634;9.420;2022-10-13T15:32:30;38.58;;;22.33;;
53269;SDS011;39159;45.634;9.420;2022-10-13T15:34:56;39.08;;;23.35;;
53269;SDS011;39159;45.634;9.420;2022-10-13T15:37:21;41.72;;;24.30;;
53269;SDS011;39159;45.634;9.420;2022-10-13T15:39:47;36.72;;;23.60;;
53269;SDS011;39159;45.634;9.420;2022-10-13T15:42:12;40.28;;;26.23;;
53269;SDS011;39159;45.634;9.420;2022-10-13T15:44:38;39.75;;;24.38;;
53269;SDS011;39159;45.634;9.420;2022-10-13T15:47:03;33.65;;;20.95;;
53269;SDS011;39159;45.634;9.420;2022-10-13T15:49:29;34.42;;;22.45;;
53269;SDS011;39159;45.634;9.420;2022-10-13T15:51:56;33.80;;;21.58;;
53269;SDS011;39159;45.634;9.420;2022-10-13T15:54:21;32.55;;;20.15;;
53269;SDS011;39159;45.634;9.420;2022-10-13T15:56:47;34.83;;;21.38;;
53269;SDS011;39159;45.634;9.420;2022-10-13T15:59:13;57.20;;;30.08;;
53269;SDS011;39159;45.634;9.420;2022-10-13T16:01:38;47.40;;;28.20;;
53269;SDS011;39159;45.634;9.420;2022-10-13T16:04:04;39.00;;;23.60;;
53269;SDS011;39159;45.634;9.420;2022-10-13T16:06:29;54.17;;;27.80;;
53269;SDS011;39159;45.634;9.420;2022-10-13T16:08:57;46.40;;;28.42;;
53269;SDS011;39159;45.634;9.420;2022-10-13T16:11:23;45.50;;;28.63;;
53269;SDS011;39159;45.634;9.420;2022-10-13T16:13:49;37.42;;;23.50;;